Historyczne dane pomiarowe

Dodano dane terminowe – wersja testowa.

Dane z okresu 1951-2019

Wersja bazy: 1.34 [2019-03-16, lista zmian], aktualizacja planowana na 2019-04-15

Dane meteo z obszaru Polski uzyskane na podstawie danych udostępnionych przez Instytut Meteorologii i Gospodarki Wodnej – Państwowy Instytut Badawczy.

 

Wybierz Datę:    

       

TemperaturaWilgotnośćWiatrCiśnienieOpadyŚniegCzas trwania zjawisk
 Stacja t tx tn tng RH VA  wxwx mslp ppp RRR   cm mm wxwxwxwxwxwxwx
1999-08-14 15.4 21.3 9.4--- 3.7 1.3---- 0.0------------
1999-08-13 15.9 21.3 11.4--- 5.3 1.3---- 0.0------------
1999-08-12 16.8 20.3 15.0--- 7.7 0.7---- 0.0------------
1999-08-11 20.7 26.5 17.0--- 5.3 2.0---- 3.7------------
1999-08-10 22.5 29.6 16.0--- 7.3 2.0---- 11.2------------
1999-08-09 22.7 32.1 16.5--- 3.3 1.3---- 4.8------------
1999-08-08 22.8 29.6 17.0--- 3.7 0.7---- 0.0------------
1999-08-07 21.4 30.1 12.6--- 2.7 2.7---- 0.0------------
1999-08-06 21.3 28.0 16.5--- 6.3 2.0---- 0.0------------
1999-08-05 18.3 26.7 10.4--- 3.0 1.7---- 3.8------------
1999-08-04 17.2 25.1 8.9--- 1.0 2.0---- 0.0------------
1999-08-03 16.4 23.6 9.9--- 6.7 1.0---- 0.0------------
1999-08-02 16.6 21.3 12.4--- 7.0 1.7---- 0.1------------
1999-08-01 17.9 24.4 12.4--- 6.3 1.3---- 0.2------------
1999-07-31 18.8 26.5 10.8--- 3.7 3.3---- 0.0------------
1999-07-30 19.1 25.9 11.8--- 2.0 2.0---- 0.0------------
1999-07-29 18.7 24.9 12.8--- 2.3 4.3---- 0.0------------
1999-07-28 20.0 26.5 16.2--- 3.3 3.3---- 0.0------------
1999-07-27 20.4 24.9 17.2--- 7.3 4.3---- 0.0------------
1999-07-26 21.6 28.5 14.3--- 6.3 3.0---- 0.0------------
1999-07-25 19.1 24.9 13.8--- 3.3 1.3---- 0.0------------
1999-07-24 18.0 22.8 13.3--- 7.7 1.3---- 0.0------------
1999-07-23 16.2 21.5 13.8--- 7.7 3.7---- 7.4------------
1999-07-22 21.1 24.9 17.2--- 6.7 2.7---- 6.3------------
1999-07-21 22.5 29.0 16.2--- 4.7 4.7---- 0.0------------
1999-07-20 22.3 30.1 13.3--- 0.3 2.0---- 0.0------------
1999-07-19 20.6 28.5 11.8--- 1.3 1.0---- 0.0------------
1999-07-18 18.8 26.2 10.8--- 1.0 2.0---- 0.0------------
1999-07-17 18.5 23.9 12.8--- 3.7 1.7---- 0.1------------
1999-07-16 17.7 22.8 12.3--- 7.3 3.0---- 0.0------------
1999-07-15 18.3 22.8 16.2--- 4.3 2.3---- 0.0------------
1999-07-14 21.4 28.0 17.7--- 6.3 2.7---- 4.5------------
1999-07-13 21.2 26.5 17.2--- 6.7 1.7---- 6.6------------
1999-07-12 21.5 28.5 15.3--- 5.7 3.3---- 1.0------------
1999-07-11 20.4 24.4 17.7--- 7.0 2.0---- 2.2------------
1999-07-10 20.5 24.9 17.7--- 6.7 1.7---- 0.0------------
1999-07-09 20.1 22.3 17.2--- 7.7 1.3---- 36.5------------
1999-07-08 19.2 22.8 16.4--- 8.0 2.0---- 19.8------------
1999-07-07 23.8 29.6 20.2--- 6.7 2.0---- 2.0------------
1999-07-06 25.5 31.6 16.7--- 4.0 1.7---- 0.0------------
1999-07-05 24.1 32.1 15.3--- 0.3 2.3---- 0.0------------
1999-07-04 23.9 31.1 18.2--- 4.3 4.0---- 0.0------------
1999-07-03 22.0 27.0 16.2--- 3.0 2.0---- 0.0------------
1999-07-02 19.5 25.4 11.8--- 6.0 2.7---- 0.4------------
1999-07-01 19.8 26.2 13.3--- 5.7 3.0---- 1.1------------
1999-06-30 20.8 25.9 14.8--- 3.0 2.3---- 0.0------------
1999-06-29 19.4 24.9 15.3--- 3.7 3.3---- 0.0------------
1999-06-28 20.1 27.5 12.8--- 3.0 2.7---- 0.0------------
1999-06-27 19.5 27.0 10.8--- 0.3 4.0---- 0.0------------
1999-06-26 16.1 24.6 7.8--- 1.7 2.0---- 0.0------------
1999-06-25 13.6 19.5 6.8--- 2.0 1.7---- 0.0------------
1999-06-24 12.6 14.8 10.3--- 7.7 2.3---- 0.0------------
1999-06-23 10.1 11.6 8.3--- 8.0 5.7---- 8.4------------
1999-06-22 12.1 17.4 9.3--- 8.0 4.7---- 42.4------------
1999-06-21 19.2 23.9 16.7--- 7.0 1.3---- 51.8------------
1999-06-20 18.8 22.3 15.5--- 7.7 1.7---- 0.7------------
1999-06-19 16.6 19.8 14.3--- 8.0 2.7---- 0.0------------
1999-06-18 18.7 22.8 15.8--- 7.3 3.7---- 14.4------------
1999-06-17 19.2 23.0 16.9--- 7.3 2.0---- 24.8------------
1999-06-16 18.3 22.3 16.2--- 8.0 1.3---- 34.3------------
299.6 ms

 

Źródłem pochodzenia danych jest Instytut Meteorologii i Gospodarki Wodnej – Państwowy Instytut Badawczy. Dane Instytutu Meteorologii i Gospodarki Wodnej – Państwowego Instytutu Badawczego zostały przetworzone.

Dane źródłowe można odnaleźć na stronie https://dane.imgw.pl